Weather History for KAQP - November, 2011

Change the Weather History Date:

Friday, November 11, 2011

  Actual Average Record
Temperature  
Mean Temperature 42 °F -  
Max Temperature 57 °F 39 °F 69 °F (2005)
Min Temperature 28 °F 23 °F 6 °F (2006)
Degree Days  
Heating Degree Days 22    
Moisture  
Dew Point 19 °F    
Average Humidity 43    
Maximum Humidity 69    
Minimum Humidity 25    
Precipitation  
Precipitation 0.00 in - - ()
Sea Level Pressure  
Sea Level Pressure 29.63 in    
Wind  
Wind Speed 8 mph (SSW)    
Max Wind Speed 10 mph    
Max Gust Speed 16 mph    
Visibility 10 miles    
Events      
Averages and records for this station are not official NWS values.
T = Trace of Precipitation, MM = Missing Value Source: NWS Daily Summary

Daily Weather History Graph

Daily Weather History Graph

Search for Another Location

Airport or City:

Trip Planner

Search our weather history database for the weather conditions in past years. The results will help you decide how hot, cold, wet, or windy it might be!

Date:

Astronomy

Nov. 11, 2011 Rise Set
Actual Time 7:16 AM CST 4:59 PM CST
Civil Twilight 6:44 AM CST 5:30 PM CST
Nautical Twilight 6:09 AM CST 6:05 PM CST
Astronomical Twilight 5:34 AM CST 6:40 PM CST
Moon 5:24 PM CST (11/11) 8:10 AM CST (11/11)
Length of Visible Light 10h 45m
Length of Day
9h 42m
Full, 99% of the Moon is Illuminated
Nov 11
Full
Nov 18
Last Quarter
Nov 25
New
Dec 2
First Quarter
Dec 10
Full

Hourly Weather History & Observations

Time (CST) Temp. Windchill Dew Point Humidity Pressure Visibility Wind Dir Wind Speed Gust Speed Precip Events Conditions
12:15 AM 33.8 °F 27.0 °F 15.8 °F 48% 29.85 in 10.0 mi SSE 8.1 mph - N/A   Scattered Clouds
12:35 AM 33.8 °F 26.4 °F 15.8 °F 48% 29.84 in 10.0 mi SSE 9.2 mph - N/A   Clear
12:55 AM 33.8 °F 27.7 °F 15.8 °F 48% 29.82 in 10.0 mi SSE 6.9 mph - N/A   Clear
1:15 AM 33.8 °F 25.8 °F 14.0 °F 44% 29.80 in 10.0 mi SSE 10.4 mph - N/A   Clear
1:35 AM 33.8 °F 26.4 °F 12.2 °F 41% 29.79 in 10.0 mi SSE 9.2 mph - N/A   Clear
2:15 AM 33.8 °F 25.8 °F 14.0 °F 44% 29.76 in 10.0 mi SSE 10.4 mph 16.1 mph N/A   Clear
2:35 AM 33.8 °F 27.0 °F 14.0 °F 44% 29.75 in 10.0 mi SE 8.1 mph - N/A   Clear
2:55 AM 33.8 °F 26.4 °F 14.0 °F 44% 29.73 in 10.0 mi SE 9.2 mph - N/A   Clear
3:15 AM 33.8 °F 26.4 °F 14.0 °F 44% 29.72 in 10.0 mi SSE 9.2 mph - N/A   Clear
3:35 AM 32.0 °F 25.6 °F 15.8 °F 51% 29.72 in 10.0 mi SSE 6.9 mph - N/A   Clear
3:55 AM 33.8 °F 25.8 °F 15.8 °F 48% 29.70 in 10.0 mi SE 10.4 mph - N/A   Clear
4:15 AM 33.8 °F 27.0 °F 15.8 °F 48% 29.69 in 10.0 mi SSE 8.1 mph - N/A   Scattered Clouds
4:35 AM 33.8 °F 25.8 °F 15.8 °F 48% 29.67 in 10.0 mi SSE 10.4 mph - N/A   Mostly Cloudy
4:55 AM 33.8 °F 27.0 °F 15.8 °F 48% 29.67 in 10.0 mi SSE 8.1 mph - N/A   Scattered Clouds
5:15 AM 32.0 °F 23.6 °F 17.6 °F 55% 29.65 in 10.0 mi South 10.4 mph - N/A   Scattered Clouds
5:35 AM 30.2 °F 25.4 °F 17.6 °F 60% 29.65 in 10.0 mi SE 4.6 mph - N/A   Scattered Clouds
5:55 AM 30.2 °F 26.7 °F 17.6 °F 60% 29.65 in 10.0 mi SSE 3.5 mph - N/A   Clear
6:35 AM 30.2 °F 24.3 °F 17.6 °F 60% 29.64 in 10.0 mi South 5.8 mph - N/A   Clear
6:55 AM 28.4 °F 23.3 °F 17.6 °F 64% 29.64 in 10.0 mi SSE 4.6 mph - N/A   Clear
7:15 AM 28.4 °F 22.2 °F 19.4 °F 69% 29.64 in 10.0 mi South 5.8 mph - N/A   Clear
7:35 AM 28.4 °F 23.3 °F 19.4 °F 69% 29.64 in 10.0 mi South 4.6 mph - N/A   Clear
7:55 AM 30.2 °F 24.3 °F 19.4 °F 64% 29.64 in 10.0 mi South 5.8 mph - N/A   Clear
8:15 AM 33.8 °F 27.7 °F 21.2 °F 60% 29.63 in 10.0 mi South 6.9 mph - N/A   Clear
8:35 AM 32.0 °F 26.4 °F 21.2 °F 64% 29.63 in 10.0 mi SSW 5.8 mph - N/A   Clear
8:55 AM 35.6 °F 32.8 °F 21.2 °F 56% 29.62 in 10.0 mi South 3.5 mph - N/A   Clear
9:15 AM 37.4 °F 32.8 °F 21.2 °F 52% 29.62 in 10.0 mi South 5.8 mph - N/A   Clear
9:35 AM 39.2 °F 35.0 °F 21.2 °F 49% 29.62 in 10.0 mi SW 5.8 mph - N/A   Clear
9:55 AM 41.0 °F 36.4 °F 21.2 °F 45% 29.62 in 10.0 mi WSW 6.9 mph - N/A   Clear
10:15 AM 42.8 °F 37.5 °F 21.2 °F 42% 29.62 in 10.0 mi West 9.2 mph - N/A   Clear
10:35 AM 44.6 °F 40.2 °F 21.2 °F 39% 29.62 in 10.0 mi West 8.1 mph - N/A   Clear
10:55 AM 46.4 °F 42.9 °F 21.2 °F 37% 29.62 in 10.0 mi West 6.9 mph - N/A   Clear
11:15 AM 46.4 °F 42.4 °F 19.4 °F 34% 29.61 in 10.0 mi West 8.1 mph - N/A   Clear
11:35 AM 48.2 °F - 19.4 °F 32% 29.61 in 10.0 mi NW 6.9 mph - N/A   Clear
11:55 AM 50.0 °F - 19.4 °F 30% 29.60 in 10.0 mi WNW 6.9 mph - N/A   Clear
12:15 PM 50.0 °F - 19.4 °F 30% 29.59 in 10.0 mi West 4.6 mph - N/A   Clear
12:35 PM 51.8 °F - 19.4 °F 28% 29.59 in 10.0 mi West 6.9 mph - N/A   Clear
12:55 PM 53.6 °F - 19.4 °F 26% 29.59 in 10.0 mi WSW 10.4 mph - N/A   Clear
1:15 PM 53.6 °F - 19.4 °F 26% 29.59 in 10.0 mi West 9.2 mph - N/A   Clear
1:35 PM 55.4 °F - 19.4 °F 25% 29.58 in 10.0 mi West 6.9 mph 16.1 mph N/A   Clear
1:55 PM 55.4 °F - 19.4 °F 25% 29.58 in 10.0 mi West 9.2 mph - N/A   Clear
2:15 PM 57.2 °F - 21.2 °F 25% 29.58 in 10.0 mi WSW 9.2 mph - N/A   Clear
2:35 PM 57.2 °F - 21.2 °F 25% 29.58 in 10.0 mi WSW 8.1 mph - N/A   Clear
2:55 PM 57.2 °F - 21.2 °F 25% 29.57 in 10.0 mi West 8.1 mph - N/A   Clear
3:15 PM 57.2 °F - 21.2 °F 25% 29.57 in 10.0 mi West 9.2 mph - N/A   Clear
3:35 PM 57.2 °F - 21.2 °F 25% 29.57 in 10.0 mi WSW 9.2 mph - N/A   Clear
3:54 PM 57.2 °F - 21.2 °F 25% 29.57 in 10.0 mi West 9.2 mph - N/A   Clear
4:35 PM 51.8 °F - 21.2 °F 30% 29.57 in 7.0 mi West 4.6 mph - N/A   Clear
4:55 PM 48.2 °F - 21.2 °F 34% 29.56 in 10.0 mi WSW 5.8 mph - N/A   Clear
5:15 PM 46.4 °F 42.9 °F 23.0 °F 40% 29.57 in 10.0 mi WSW 6.9 mph - N/A   Clear
5:34 PM 46.4 °F 43.5 °F 23.0 °F 40% 29.57 in 10.0 mi SW 5.8 mph - N/A   Clear
5:55 PM 48.2 °F - 21.2 °F 34% 29.57 in 10.0 mi SW 4.6 mph - N/A   Clear
6:14 PM 46.4 °F 44.3 °F 23.0 °F 40% 29.57 in 10.0 mi SW 4.6 mph - N/A   Clear
6:34 PM 46.4 °F 43.5 °F 23.0 °F 40% 29.57 in 10.0 mi SW 5.8 mph - N/A   Clear
6:54 PM 44.6 °F 42.2 °F 23.0 °F 43% 29.57 in 10.0 mi SSW 4.6 mph - N/A   Clear
7:15 PM 39.2 °F - 23.0 °F 52% 29.56 in 10.0 mi Calm Calm - N/A   Clear
7:35 PM 39.2 °F - 23.0 °F 52% 29.56 in 10.0 mi Calm Calm - N/A   Clear
7:55 PM 37.4 °F 32.8 °F 24.8 °F 60% 29.56 in 10.0 mi South 5.8 mph - N/A   Clear
8:15 PM 42.8 °F 40.1 °F 24.8 °F 49% 29.55 in 10.0 mi SSW 4.6 mph - N/A   Clear
8:34 PM 42.8 °F 38.6 °F 24.8 °F 49% 29.55 in 10.0 mi SSW 6.9 mph - N/A   Clear
8:55 PM 41.0 °F 37.1 °F 23.0 °F 49% 29.55 in 10.0 mi SSW 5.8 mph - N/A   Clear
9:14 PM 39.2 °F 34.2 °F 23.0 °F 52% 29.56 in 10.0 mi SSW 6.9 mph - N/A   Clear
9:35 PM 41.0 °F 37.1 °F 23.0 °F 49% 29.56 in 10.0 mi SSW 5.8 mph - N/A   Clear
9:55 PM 39.2 °F 35.9 °F 24.8 °F 56% 29.56 in 10.0 mi SSW 4.6 mph - N/A   Clear
10:15 PM 39.2 °F 35.9 °F 23.0 °F 52% 29.55 in 10.0 mi SSW 4.6 mph - N/A   Clear
10:34 PM 37.4 °F 33.8 °F 26.6 °F 65% 29.55 in 10.0 mi SSW 4.6 mph - N/A   Clear
10:55 PM 37.4 °F 32.8 °F 24.8 °F 60% 29.54 in 10.0 mi SSW 5.8 mph - N/A   Clear
11:14 PM 37.4 °F - 23.0 °F 56% 29.53 in 10.0 mi Calm Calm - N/A   Clear
11:34 PM 35.6 °F 30.7 °F 23.0 °F 60% 29.53 in 10.0 mi SSW 5.8 mph - N/A   Clear
11:55 PM 35.6 °F 31.7 °F 24.8 °F 65% 29.52 in 10.0 mi SSW 4.6 mph - N/A   Clear